createdAt,value
2018-12-18T00:00:05.572Z,101785.52
2018-12-18T00:02:33.044Z,101781.66
2018-12-18T00:05:02.338Z,101781.18
2018-12-18T00:07:29.742Z,101778.56
2018-12-18T00:09:57.191Z,101780.70
2018-12-18T00:12:24.583Z,101774.22
2018-12-18T00:14:51.977Z,101781.45
2018-12-18T00:17:19.388Z,101787.04
2018-12-18T00:19:46.782Z,101781.84
2018-12-18T00:22:14.175Z,101787.83
2018-12-18T00:24:41.572Z,101788.67
2018-12-18T00:27:08.997Z,101794.16
2018-12-18T00:29:36.392Z,101789.36
2018-12-18T00:32:03.803Z,101791.88
2018-12-18T00:34:31.544Z,101792.73
2018-12-18T00:36:58.947Z,101792.67
2018-12-18T00:39:26.349Z,101788.84
2018-12-18T00:41:55.635Z,101787.16
2018-12-18T00:44:23.048Z,101790.97
2018-12-18T00:46:50.444Z,101790.05
2018-12-18T00:49:17.851Z,101797.78
2018-12-18T00:51:45.250Z,101791.34
2018-12-18T00:54:12.721Z,101795.47
2018-12-18T00:56:40.114Z,101794.52
2018-12-18T00:59:07.517Z,101795.84
2018-12-18T01:01:34.914Z,101795.70
2018-12-18T01:04:02.338Z,101796.52
2018-12-18T01:06:29.734Z,101792.64
2018-12-18T01:08:57.147Z,101792.63
2018-12-18T01:11:24.538Z,101795.58
2018-12-18T01:13:51.935Z,101802.47
2018-12-18T01:16:19.325Z,101802.74
2018-12-18T01:18:46.721Z,101799.27
2018-12-18T01:21:14.204Z,101808.69
2018-12-18T01:23:42.378Z,101805.72
2018-12-18T01:26:09.856Z,101805.35
2018-12-18T01:28:37.244Z,101810.04
2018-12-18T01:31:04.642Z,101810.48
2018-12-18T01:33:32.037Z,101813.39
2018-12-18T01:35:59.428Z,101809.51
2018-12-18T01:38:26.839Z,101812.54
2018-12-18T01:40:54.236Z,101817.19
2018-12-18T01:43:21.629Z,101813.72
2018-12-18T01:45:49.030Z,101819.29
2018-12-18T01:48:16.418Z,101812.77
2018-12-18T01:50:43.794Z,101815.32
2018-12-18T01:53:11.206Z,101814.86
2018-12-18T01:55:38.604Z,101811.30
2018-12-18T01:58:06.014Z,101816.22
2018-12-18T02:00:33.411Z,101815.77
2018-12-18T02:03:00.804Z,101823.08
2018-12-18T02:05:28.198Z,101827.78
2018-12-18T02:07:55.639Z,101824.77
2018-12-18T02:10:23.129Z,101824.75
2018-12-18T02:12:50.536Z,101821.25
2018-12-18T02:15:17.928Z,101827.56
2018-12-18T02:17:45.302Z,101824.22
2018-12-18T02:20:12.704Z,101828.87
2018-12-18T02:22:40.096Z,101829.72
2018-12-18T02:25:07.487Z,101829.22
2018-12-18T02:27:34.878Z,101830.91
2018-12-18T02:30:02.272Z,101829.13
2018-12-18T02:32:29.750Z,101839.48
2018-12-18T02:34:57.156Z,101828.27
2018-12-18T02:37:24.542Z,101836.80
2018-12-18T02:39:51.937Z,101839.79
2018-12-18T02:42:19.337Z,101836.38
2018-12-18T02:44:46.729Z,101831.08
2018-12-18T02:47:14.209Z,101831.89
2018-12-18T02:49:41.612Z,101830.20
2018-12-18T02:52:09.089Z,101832.82
2018-12-18T02:54:36.574Z,101831.59
2018-12-18T02:57:03.980Z,101835.04
2018-12-18T02:59:31.386Z,101838.05
2018-12-18T03:01:58.794Z,101851.06
2018-12-18T03:04:26.200Z,101853.77
2018-12-18T03:06:53.586Z,101856.61
2018-12-18T03:09:20.998Z,101844.12
2018-12-18T03:11:48.401Z,101851.15
2018-12-18T03:14:15.815Z,101851.13
2018-12-18T03:16:43.290Z,101850.19
2018-12-18T03:19:10.885Z,101852.34
2018-12-18T03:21:38.282Z,101857.48
2018-12-18T03:24:05.671Z,101860.06
2018-12-18T03:26:33.066Z,101851.92
2018-12-18T03:29:00.590Z,101854.33
2018-12-18T03:31:29.392Z,101850.39
2018-12-18T03:33:57.021Z,101840.85
2018-12-18T03:36:24.410Z,101840.48
2018-12-18T03:38:51.794Z,101843.05
2018-12-18T03:41:19.203Z,101840.92
2018-12-18T03:43:47.343Z,101846.04
2018-12-18T03:46:14.752Z,101855.23
2018-12-18T03:48:42.132Z,101851.67
2018-12-18T03:51:09.537Z,101849.08
2018-12-18T03:53:37.010Z,101847.09
2018-12-18T03:56:04.505Z,101852.62
2018-12-18T03:58:31.985Z,101856.91
2018-12-18T04:00:59.498Z,101860.25
2018-12-18T04:03:26.898Z,101865.41
2018-12-18T04:05:54.819Z,101865.00
2018-12-18T04:08:22.218Z,101858.53
2018-12-18T04:10:49.703Z,101860.75
2018-12-18T04:13:17.128Z,101858.11
2018-12-18T04:15:44.534Z,101862.97
2018-12-18T04:18:11.936Z,101862.11
2018-12-18T04:21:14.649Z,101853.94
2018-12-18T04:23:42.059Z,101855.31
2018-12-18T04:26:09.455Z,101858.27
2018-12-18T04:28:36.930Z,101857.53
2018-12-18T04:31:04.417Z,101861.72
2018-12-18T04:33:31.816Z,101859.22
2018-12-18T04:35:59.234Z,101858.27
2018-12-18T04:38:26.637Z,101865.27
2018-12-18T04:40:54.110Z,101868.26
2018-12-18T04:43:21.514Z,101866.56
2018-12-18T04:45:48.909Z,101871.30
2018-12-18T04:48:16.309Z,101865.69
2018-12-18T04:50:43.789Z,101869.50
2018-12-18T04:53:11.267Z,101865.69
2018-12-18T04:55:38.658Z,101866.91
2018-12-18T04:58:06.130Z,101872.89
2018-12-18T05:00:33.604Z,101877.66
2018-12-18T05:03:00.991Z,101877.66
2018-12-18T05:05:28.377Z,101875.92
2018-12-18T05:07:55.770Z,101871.92
2018-12-18T05:10:23.150Z,101879.36
2018-12-18T05:12:50.547Z,101878.20
2018-12-18T05:15:17.947Z,101876.48
2018-12-18T05:17:45.334Z,101883.83
2018-12-18T05:20:12.751Z,101879.56
2018-12-18T05:22:40.215Z,101882.59
2018-12-18T05:25:07.612Z,101886.08
2018-12-18T05:27:35.094Z,101887.02
2018-12-18T05:30:02.489Z,101883.97
2018-12-18T05:32:29.964Z,101891.27
2018-12-18T05:34:57.386Z,101888.67
2018-12-18T05:37:24.777Z,101891.23
2018-12-18T05:39:52.163Z,101889.45
2018-12-18T05:42:19.560Z,101896.86
2018-12-18T05:44:47.055Z,101896.38
2018-12-18T05:47:14.466Z,101896.86
2018-12-18T05:49:41.862Z,101891.70
2018-12-18T05:52:09.330Z,101896.88
2018-12-18T05:54:36.709Z,101895.16
2018-12-18T05:57:04.102Z,101896.48
2018-12-18T05:59:31.500Z,101907.23
2018-12-18T06:01:58.931Z,101904.24
2018-12-18T06:04:26.328Z,101901.56
2018-12-18T06:06:53.703Z,101904.22
2018-12-18T06:09:21.097Z,101902.44
2018-12-18T06:11:48.487Z,101912.73
2018-12-18T06:14:15.869Z,101918.36
2018-12-18T06:16:43.249Z,101921.73
2018-12-18T06:19:10.645Z,101922.30
2018-12-18T06:21:38.047Z,101919.70
2018-12-18T06:24:05.419Z,101912.86
2018-12-18T06:26:32.798Z,101916.71
2018-12-18T06:29:00.193Z,101912.31
2018-12-18T06:31:27.598Z,101913.96
2018-12-18T06:33:54.991Z,101916.95
2018-12-18T06:36:22.459Z,101921.70
2018-12-18T06:38:49.867Z,101927.06
2018-12-18T06:41:17.250Z,101921.90
2018-12-18T06:43:44.837Z,101926.23
2018-12-18T06:46:12.223Z,101934.55
2018-12-18T06:48:39.612Z,101937.50
2018-12-18T06:51:06.997Z,101936.30
2018-12-18T06:53:34.382Z,101943.61
2018-12-18T06:56:01.777Z,101945.25
2018-12-18T06:58:29.154Z,101950.09
2018-12-18T07:00:56.539Z,101947.42
2018-12-18T07:03:23.940Z,101946.56
2018-12-18T07:05:51.367Z,101939.67
2018-12-18T07:08:18.750Z,101937.52
2018-12-18T07:10:46.139Z,101939.66
2018-12-18T07:13:13.537Z,101936.27
2018-12-18T07:15:40.924Z,101938.45
2018-12-18T07:18:08.370Z,101949.31
2018-12-18T07:20:35.722Z,101944.08
2018-12-18T07:23:03.145Z,101948.89
2018-12-18T07:25:30.534Z,101951.47
2018-12-18T07:27:57.917Z,101957.17
2018-12-18T07:30:25.369Z,101962.24
2018-12-18T07:32:52.762Z,101958.73
2018-12-18T07:35:23.243Z,101956.59
2018-12-18T07:37:49.537Z,101961.87
2018-12-18T07:40:16.949Z,101960.94
2018-12-18T07:42:44.335Z,101966.95
2018-12-18T07:45:11.753Z,101962.24
2018-12-18T07:47:39.145Z,101969.72
2018-12-18T07:50:06.542Z,101964.41
2018-12-18T07:52:33.922Z,101966.55
2018-12-18T07:55:01.323Z,101971.32
2018-12-18T07:57:28.742Z,101983.16
2018-12-18T07:59:56.121Z,101983.14
2018-12-18T08:02:23.542Z,101986.65
2018-12-18T08:04:50.939Z,101990.19
2018-12-18T08:07:18.321Z,101984.09
2018-12-18T08:09:45.713Z,101983.72
2018-12-18T08:12:13.259Z,101992.05
2018-12-18T08:14:40.643Z,101989.38
2018-12-18T08:17:08.024Z,101989.78
2018-12-18T08:19:35.406Z,101989.83
2018-12-18T08:22:02.883Z,101988.84
2018-12-18T08:24:30.287Z,101997.92
2018-12-18T08:26:57.679Z,101995.38
2018-12-18T08:29:25.075Z,101993.55
2018-12-18T08:31:52.467Z,101995.64
2018-12-18T08:34:19.857Z,101998.21
2018-12-18T08:36:47.238Z,102001.69
2018-12-18T08:39:14.710Z,101996.05
2018-12-18T08:41:42.173Z,101999.03
2018-12-18T08:44:09.558Z,102003.88
2018-12-18T08:46:36.954Z,102005.61
2018-12-18T08:49:04.356Z,102005.34
2018-12-18T08:51:31.750Z,102009.70
2018-12-18T08:53:59.133Z,102008.48
2018-12-18T08:56:26.530Z,102006.34
2018-12-18T08:58:53.927Z,101998.87
2018-12-18T09:01:21.346Z,102002.36
2018-12-18T09:03:48.989Z,102005.39
2018-12-18T09:06:16.408Z,102001.48
2018-12-18T09:08:43.898Z,102005.42
2018-12-18T09:11:11.268Z,102010.66
2018-12-18T09:13:38.671Z,102007.62
2018-12-18T09:16:07.953Z,102004.58
2018-12-18T09:18:35.362Z,102005.44
2018-12-18T09:21:02.735Z,102002.38
2018-12-18T09:23:30.132Z,102003.22
2018-12-18T09:25:57.585Z,102000.13
2018-12-18T09:28:24.970Z,101998.70
2018-12-18T09:30:52.388Z,101997.92
2018-12-18T09:33:19.775Z,101995.81
2018-12-18T09:35:49.853Z,101999.13
2018-12-18T09:41:25.953Z,101983.00
2018-12-18T09:43:55.230Z,101990.83
2018-12-18T09:46:23.023Z,101984.77
2018-12-18T09:48:50.422Z,101983.42
2018-12-18T09:51:17.889Z,101982.07
2018-12-18T09:53:46.391Z,101975.03
2018-12-18T09:56:13.794Z,101972.98
2018-12-18T09:58:41.165Z,101969.59
2018-12-18T10:01:08.782Z,101964.33
2018-12-18T10:03:36.181Z,101966.02
2018-12-18T10:06:03.603Z,101962.48
2018-12-18T10:08:30.972Z,101963.34
2018-12-18T10:10:58.366Z,101959.37
2018-12-18T10:13:25.874Z,101949.44
2018-12-18T10:15:53.277Z,101945.39
2018-12-18T10:18:20.668Z,101943.36
2018-12-18T10:20:48.042Z,101941.11
2018-12-18T10:23:15.429Z,101937.67
2018-12-18T10:25:42.939Z,101940.18
2018-12-18T10:28:10.313Z,101936.63
2018-12-18T10:30:37.712Z,101938.33
2018-12-18T10:33:05.387Z,101938.28
2018-12-18T10:35:36.648Z,101937.08
2018-12-18T10:38:02.147Z,101930.09
2018-12-18T10:40:29.543Z,101929.47
2018-12-18T10:42:56.922Z,101923.95
2018-12-18T10:45:24.527Z,101919.20
2018-12-18T10:47:51.910Z,101917.50
2018-12-18T10:50:19.304Z,101914.70
2018-12-18T10:52:46.710Z,101914.93
2018-12-18T10:55:14.096Z,101912.55
2018-12-18T10:57:41.498Z,101913.66
2018-12-18T11:00:11.688Z,101909.83
2018-12-18T11:02:39.109Z,101912.80
2018-12-18T11:05:06.521Z,101918.74
2018-12-18T11:07:33.903Z,101920.31
2018-12-18T11:10:01.381Z,101921.22
2018-12-18T11:12:34.567Z,101907.45
2018-12-18T11:15:01.955Z,101916.02
2018-12-18T11:17:29.335Z,101911.64
2018-12-18T11:19:56.722Z,101914.56
2018-12-18T11:22:24.116Z,101910.72
2018-12-18T11:24:51.509Z,101908.09
2018-12-18T11:27:18.895Z,101915.73
2018-12-18T11:29:46.292Z,101908.29
2018-12-18T11:32:13.687Z,101903.66
2018-12-18T11:34:41.089Z,101909.59
2018-12-18T11:37:08.564Z,101908.31
2018-12-18T11:39:36.050Z,101907.06
2018-12-18T11:42:03.422Z,101896.60
2018-12-18T11:44:30.806Z,101886.68
2018-12-18T11:46:58.218Z,101891.05
2018-12-18T11:49:25.596Z,101895.16
2018-12-18T11:51:53.077Z,101886.88
2018-12-18T11:54:20.462Z,101889.94
2018-12-18T11:56:47.851Z,101890.70
2018-12-18T11:59:15.413Z,101885.48
2018-12-18T12:01:42.936Z,101883.69
2018-12-18T12:04:10.326Z,101878.03
2018-12-18T12:06:37.726Z,101874.60
2018-12-18T12:09:06.107Z,101864.27
2018-12-18T12:11:33.660Z,101870.23
2018-12-18T12:14:01.117Z,101860.23
2018-12-18T12:16:28.504Z,101863.61
2018-12-18T12:18:55.882Z,101860.95
2018-12-18T12:21:23.282Z,101858.38
2018-12-18T12:23:50.690Z,101857.61
2018-12-18T12:26:23.605Z,101857.19
2018-12-18T12:28:50.993Z,101842.38
2018-12-18T12:31:18.448Z,101836.71
2018-12-18T12:33:46.250Z,101833.89
2018-12-18T12:36:13.638Z,101833.48
2018-12-18T12:38:41.121Z,101825.22
2018-12-18T12:41:08.505Z,101836.73
2018-12-18T12:43:35.898Z,101841.66
2018-12-18T12:46:03.325Z,101836.41
2018-12-18T12:51:34.514Z,101842.05
2018-12-18T12:54:01.904Z,101831.21
2018-12-18T12:56:29.375Z,101831.16
2018-12-18T12:58:56.770Z,101822.77
2018-12-18T13:01:24.191Z,101829.03
2018-12-18T13:03:51.642Z,101821.86
2018-12-18T13:06:19.009Z,101820.56
2018-12-18T13:08:46.461Z,101823.45
2018-12-18T13:11:13.833Z,101826.18
2018-12-18T13:13:41.235Z,101817.03
2018-12-18T13:16:08.635Z,101820.58
2018-12-18T13:18:36.020Z,101823.03
2018-12-18T13:21:03.394Z,101824.25
2018-12-18T13:23:30.780Z,101819.55
2018-12-18T13:25:58.171Z,101836.38
2018-12-18T13:28:25.578Z,101831.66
2018-12-18T13:30:52.996Z,101833.76
2018-12-18T13:33:20.382Z,101831.27
2018-12-18T13:35:47.778Z,101826.43
2018-12-18T13:38:15.269Z,101826.05
2018-12-18T13:40:42.745Z,101829.97
2018-12-18T13:43:10.147Z,101805.20
2018-12-18T13:45:37.535Z,101798.16
2018-12-18T13:48:04.995Z,101795.58
2018-12-18T13:50:32.386Z,101788.91
2018-12-18T13:52:59.875Z,101785.92
2018-12-18T13:55:27.242Z,101772.52
2018-12-18T13:57:54.647Z,101771.28
2018-12-18T14:00:22.043Z,101773.69
2018-12-18T14:02:49.445Z,101776.65
2018-12-18T14:05:16.849Z,101776.17
2018-12-18T14:07:44.279Z,101776.95
2018-12-18T14:10:11.749Z,101775.48
2018-12-18T14:12:39.209Z,101776.23
2018-12-18T14:15:06.902Z,101774.10
2018-12-18T14:17:34.305Z,101780.05
2018-12-18T14:20:01.741Z,101781.70
2018-12-18T14:22:29.206Z,101781.23
2018-12-18T14:24:56.599Z,101787.39
2018-12-18T14:27:23.999Z,101780.95
2018-12-18T14:29:51.465Z,101775.81
2018-12-18T14:32:18.855Z,101767.66
2018-12-18T14:34:46.250Z,101773.13
2018-12-18T14:37:13.647Z,101775.38
2018-12-18T14:39:41.034Z,101778.02
2018-12-18T14:42:08.438Z,101773.41
2018-12-18T14:44:35.811Z,101771.48
2018-12-18T14:47:03.194Z,101779.29
2018-12-18T14:49:30.591Z,101785.53
2018-12-18T14:51:57.979Z,101779.77
2018-12-18T14:54:25.638Z,101784.70
2018-12-18T14:56:53.043Z,101789.84
2018-12-18T14:59:20.547Z,101789.37
2018-12-18T15:01:48.998Z,101788.76
2018-12-18T15:04:16.391Z,101787.88
2018-12-18T15:06:43.775Z,101792.23
2018-12-18T15:09:11.167Z,101797.69
2018-12-18T15:11:38.568Z,101795.97
2018-12-18T15:14:06.025Z,101805.02
2018-12-18T15:16:33.436Z,101794.28
2018-12-18T15:19:00.906Z,101791.96
2018-12-18T15:21:28.300Z,101797.95
2018-12-18T15:23:55.711Z,101794.48
2018-12-18T15:26:23.163Z,101788.34
2018-12-18T15:28:50.526Z,101781.08
2018-12-18T15:31:17.909Z,101778.50
2018-12-18T15:33:46.279Z,101784.09
2018-12-18T15:36:13.701Z,101778.44
2018-12-18T15:38:41.083Z,101786.02
2018-12-18T15:41:08.465Z,101783.20
2018-12-18T15:43:35.853Z,101774.22
2018-12-18T15:46:03.324Z,101774.61
2018-12-18T15:48:30.706Z,101776.21
2018-12-18T15:50:58.090Z,101782.23
2018-12-18T15:53:25.470Z,101779.22
2018-12-18T15:55:52.857Z,101776.61
2018-12-18T15:58:20.249Z,101781.03
2018-12-18T16:00:47.634Z,101774.02
2018-12-18T16:03:15.022Z,101762.83
2018-12-18T16:05:42.428Z,101767.20
2018-12-18T16:08:09.836Z,101767.55
2018-12-18T16:10:37.211Z,101772.22
2018-12-18T16:13:04.712Z,101777.06
2018-12-18T16:15:32.092Z,101774.55
2018-12-18T16:17:59.484Z,101778.98
2018-12-18T16:20:26.864Z,101767.23
2018-12-18T16:22:54.243Z,101769.34
2018-12-18T16:25:21.646Z,101770.59
2018-12-18T16:27:49.052Z,101777.92
2018-12-18T16:30:16.450Z,101776.48
2018-12-18T16:32:43.836Z,101775.16
2018-12-18T16:35:11.213Z,101786.59
2018-12-18T16:37:38.607Z,101785.69
2018-12-18T16:40:06.109Z,101780.64
2018-12-18T16:42:33.497Z,101781.12
2018-12-18T16:45:00.902Z,101778.50
2018-12-18T16:47:28.297Z,101771.19
2018-12-18T16:49:55.762Z,101770.75
2018-12-18T16:52:23.151Z,101768.64
2018-12-18T16:54:50.550Z,101754.30
2018-12-18T16:57:17.945Z,101757.76
2018-12-18T16:59:45.343Z,101757.95
2018-12-18T17:02:12.747Z,101757.20
2018-12-18T17:04:40.157Z,101752.08
2018-12-18T17:07:07.570Z,101739.99
2018-12-18T17:09:34.991Z,101740.94
2018-12-18T17:12:02.385Z,101742.61
2018-12-18T17:14:29.781Z,101741.78
2018-12-18T17:16:57.169Z,101746.23
2018-12-18T17:19:24.620Z,101746.23
2018-12-18T17:21:51.998Z,101737.78
2018-12-18T17:24:19.395Z,101724.41
2018-12-18T17:26:46.789Z,101722.22
2018-12-18T17:29:14.174Z,101726.41
2018-12-18T17:31:41.572Z,101722.94
2018-12-18T17:34:08.987Z,101725.53
2018-12-18T17:36:37.120Z,101730.44
2018-12-18T17:39:06.539Z,101721.00
2018-12-18T17:41:33.922Z,101722.81
2018-12-18T17:44:01.313Z,101718.91
2018-12-18T17:46:28.771Z,101714.44
2018-12-18T17:48:56.219Z,101710.16
2018-12-18T17:51:23.607Z,101713.75
2018-12-18T17:53:51.044Z,101717.97
2018-12-18T17:56:18.439Z,101717.06
2018-12-18T17:58:45.812Z,101721.94
2018-12-18T18:01:13.355Z,101719.42
2018-12-18T18:03:40.740Z,101728.02
2018-12-18T18:06:08.160Z,101720.34
2018-12-18T18:08:35.550Z,101726.56
2018-12-18T18:11:03.651Z,101730.06
2018-12-18T18:13:31.157Z,101729.71
2018-12-18T18:15:58.585Z,101735.77
2018-12-18T18:18:25.972Z,101722.61
2018-12-18T18:20:53.832Z,101727.43
2018-12-18T18:23:21.439Z,101726.45
2018-12-18T18:25:51.847Z,101733.73
2018-12-18T18:28:19.248Z,101732.00
2018-12-18T18:30:46.625Z,101727.34
2018-12-18T18:33:14.026Z,101732.61
2018-12-18T18:35:41.414Z,101734.28
2018-12-18T18:38:08.792Z,101733.41
2018-12-18T18:40:36.251Z,101726.30
2018-12-18T18:43:03.634Z,101722.98
2018-12-18T18:45:31.052Z,101728.20
2018-12-18T18:47:58.439Z,101729.44
2018-12-18T18:50:25.837Z,101730.80
2018-12-18T18:52:53.227Z,101730.81
2018-12-18T18:55:20.623Z,101724.41
2018-12-18T18:57:48.021Z,101717.44
2018-12-18T19:00:15.421Z,101720.56
2018-12-18T19:02:42.814Z,101717.03
2018-12-18T19:05:10.241Z,101721.02
2018-12-18T19:07:37.615Z,101717.98
2018-12-18T19:10:06.217Z,101710.20
2018-12-18T19:12:33.683Z,101706.36
2018-12-18T19:15:01.155Z,101699.08
2018-12-18T19:17:28.655Z,101697.77
2018-12-18T19:19:56.048Z,101689.53
2018-12-18T19:22:23.436Z,101681.27
2018-12-18T19:24:50.831Z,101678.30
2018-12-18T19:27:18.221Z,101679.07
2018-12-18T19:29:45.599Z,101671.01
2018-12-18T19:32:13.024Z,101664.94
2018-12-18T19:34:40.406Z,101659.25
2018-12-18T19:37:07.778Z,101656.77
2018-12-18T19:39:35.259Z,101653.75
2018-12-18T19:42:02.646Z,101652.04
2018-12-18T19:44:30.692Z,101640.31
2018-12-18T19:46:58.074Z,101633.14
2018-12-18T19:49:25.485Z,101637.88
2018-12-18T19:51:52.863Z,101630.52
2018-12-18T19:54:20.257Z,101637.45
2018-12-18T19:56:47.741Z,101632.72
2018-12-18T19:59:15.122Z,101627.53
2018-12-18T20:01:42.517Z,101624.88
2018-12-18T20:04:09.919Z,101621.48
2018-12-18T20:06:37.328Z,101624.44
2018-12-18T20:09:06.354Z,101620.21
2018-12-18T20:11:33.767Z,101623.27
2018-12-18T20:14:01.176Z,101615.44
2018-12-18T20:16:28.562Z,101616.80
2018-12-18T20:18:55.980Z,101609.03
2018-12-18T20:21:23.385Z,101603.05
2018-12-18T20:23:50.775Z,101602.59
2018-12-18T20:26:18.176Z,101595.72
2018-12-18T20:28:45.567Z,101596.66
2018-12-18T20:31:12.975Z,101593.27
2018-12-18T20:33:40.367Z,101587.74
2018-12-18T20:36:07.756Z,101583.49
2018-12-18T20:38:35.150Z,101577.34
2018-12-18T20:41:02.554Z,101578.26
2018-12-18T20:43:29.943Z,101569.74
2018-12-18T20:45:57.363Z,101564.25
2018-12-18T20:48:24.755Z,101560.40
2018-12-18T20:50:52.151Z,101551.85
2018-12-18T20:53:19.642Z,101546.28
2018-12-18T20:55:47.054Z,101536.38
2018-12-18T20:58:14.442Z,101536.36
2018-12-18T21:00:41.860Z,101527.39
2018-12-18T21:03:09.308Z,101527.88
2018-12-18T21:05:36.793Z,101522.77
2018-12-18T21:08:04.230Z,101519.38
2018-12-18T21:10:31.619Z,101528.41
2018-12-18T21:16:03.923Z,101525.87
2018-12-18T21:18:31.340Z,101516.00
2018-12-18T21:20:58.827Z,101508.70
2018-12-18T21:23:26.219Z,101510.07
2018-12-18T21:25:53.619Z,101506.23
2018-12-18T21:28:21.032Z,101500.67
2018-12-18T21:30:48.461Z,101495.95
2018-12-18T21:33:15.872Z,101490.33
2018-12-18T21:35:43.355Z,101486.43
2018-12-18T21:38:10.789Z,101479.59
2018-12-18T21:40:39.067Z,101489.16
2018-12-18T21:43:06.634Z,101483.05
2018-12-18T21:45:34.045Z,101474.08
2018-12-18T21:48:01.449Z,101484.86
2018-12-18T21:50:28.854Z,101485.72
2018-12-18T21:52:56.267Z,101483.12
2018-12-18T21:55:23.678Z,101487.45
2018-12-18T21:57:51.081Z,101491.37
2018-12-18T22:00:18.486Z,101483.66
2018-12-18T22:02:45.878Z,101491.48
2018-12-18T22:05:13.275Z,101490.61
2018-12-18T22:07:40.689Z,101488.48
2018-12-18T22:10:08.066Z,101490.54
2018-12-18T22:12:35.454Z,101487.09
2018-12-18T22:15:02.962Z,101476.34
2018-12-18T22:17:30.360Z,101469.91
2018-12-18T22:19:57.766Z,101464.80
2018-12-18T22:22:25.194Z,101456.66
2018-12-18T22:24:52.608Z,101465.27
2018-12-18T22:27:20.000Z,101458.38
2018-12-18T22:29:47.413Z,101449.33
2018-12-18T22:32:14.797Z,101448.47
2018-12-18T22:34:42.221Z,101449.36
2018-12-18T22:37:09.685Z,101457.52
2018-12-18T22:39:37.075Z,101456.27
2018-12-18T22:42:04.465Z,101452.79
2018-12-18T22:44:31.880Z,101442.02
2018-12-18T22:46:59.292Z,101437.75
2018-12-18T22:49:26.676Z,101432.50
2018-12-18T22:51:54.071Z,101429.53
2018-12-18T22:54:21.480Z,101426.02
2018-12-18T22:56:48.874Z,101424.25
2018-12-18T22:59:16.284Z,101416.98
2018-12-18T23:01:45.060Z,101412.25
2018-12-18T23:04:13.666Z,101410.58
2018-12-18T23:06:41.100Z,101394.21
2018-12-18T23:09:10.413Z,101392.47
2018-12-18T23:11:37.814Z,101384.34
2018-12-18T23:14:05.233Z,101378.44
2018-12-18T23:16:32.626Z,101371.09
2018-12-18T23:19:00.034Z,101362.08
2018-12-18T23:21:27.450Z,101356.88
2018-12-18T23:23:54.855Z,101353.05
2018-12-18T23:26:22.248Z,101356.08
2018-12-18T23:28:49.668Z,101345.75
2018-12-18T23:31:17.066Z,101345.79
2018-12-18T23:33:44.476Z,101342.78
2018-12-18T23:36:11.941Z,101340.22
2018-12-18T23:38:39.353Z,101338.09
2018-12-18T23:41:06.830Z,101329.08
2018-12-18T23:43:34.222Z,101321.72
2018-12-18T23:46:01.636Z,101322.60
2018-12-18T23:48:29.052Z,101314.52
2018-12-18T23:50:56.583Z,101311.41
2018-12-18T23:53:24.028Z,101300.33
2018-12-18T23:55:51.430Z,101307.24
2018-12-18T23:58:18.830Z,101296.02
